createdAt,value
2017-06-23T00:00:46.952Z,47.70
2017-06-23T00:03:13.204Z,47.80
2017-06-23T00:05:39.480Z,47.90
2017-06-23T00:08:05.707Z,48.00
2017-06-23T00:10:31.950Z,48.00
2017-06-23T00:12:58.153Z,48.10
2017-06-23T00:15:24.687Z,48.20
2017-06-23T00:17:50.954Z,48.30
2017-06-23T00:20:17.173Z,48.50
2017-06-23T00:22:43.467Z,48.60
2017-06-23T00:25:09.730Z,48.60
2017-06-23T00:27:35.992Z,48.60
2017-06-23T00:30:02.237Z,48.70
2017-06-23T00:32:29.501Z,49.60
2017-06-23T00:34:55.737Z,49.00
2017-06-23T00:37:21.982Z,49.10
2017-06-23T00:39:48.226Z,49.20
2017-06-23T00:42:14.485Z,49.40
2017-06-23T00:44:40.767Z,49.70
2017-06-23T00:47:07.005Z,49.80
2017-06-23T00:49:33.627Z,49.70
2017-06-23T00:51:59.865Z,49.90
2017-06-23T00:54:26.082Z,50.00
2017-06-23T00:56:52.336Z,50.20
2017-06-23T00:59:18.559Z,50.20
2017-06-23T01:01:44.863Z,50.30
2017-06-23T01:04:11.117Z,50.30
2017-06-23T01:06:37.705Z,50.40
2017-06-23T01:09:03.978Z,50.50
2017-06-23T01:11:30.226Z,50.60
2017-06-23T01:13:56.467Z,50.60
2017-06-23T01:16:23.412Z,51.00
2017-06-23T01:18:50.408Z,51.20
2017-06-23T01:21:16.694Z,50.70
2017-06-23T01:23:43.959Z,50.90
2017-06-23T01:26:10.189Z,50.90
2017-06-23T01:28:36.435Z,51.00
2017-06-23T01:31:02.713Z,51.00
2017-06-23T01:33:29.080Z,51.00
2017-06-23T01:35:55.709Z,51.20
2017-06-23T01:38:21.960Z,51.20
2017-06-23T01:40:48.201Z,51.30
2017-06-23T01:43:14.498Z,51.30
2017-06-23T01:45:40.764Z,51.40
2017-06-23T01:48:07.340Z,51.50
2017-06-23T01:50:34.325Z,51.60
2017-06-23T01:53:00.570Z,51.60
2017-06-23T01:55:26.819Z,51.70
2017-06-23T01:57:53.038Z,51.80
2017-06-23T02:00:19.602Z,51.90
2017-06-23T02:02:46.584Z,52.10
2017-06-23T02:05:12.811Z,52.00
2017-06-23T02:07:39.060Z,52.20
2017-06-23T02:10:05.289Z,52.20
2017-06-23T02:12:31.882Z,52.30
2017-06-23T02:14:58.103Z,52.30
2017-06-23T02:17:25.123Z,52.50
2017-06-23T02:19:51.375Z,52.40
2017-06-23T02:22:18.337Z,52.50
2017-06-23T02:24:44.921Z,52.50
2017-06-23T02:27:11.188Z,52.50
2017-06-23T02:29:37.401Z,52.50
2017-06-23T02:32:04.397Z,52.80
2017-06-23T02:34:30.673Z,52.80
2017-06-23T02:36:57.670Z,52.80
2017-06-23T02:39:23.923Z,52.90
2017-06-23T02:41:50.418Z,52.90
2017-06-23T02:44:16.684Z,53.10
2017-06-23T02:46:42.919Z,53.10
2017-06-23T02:49:09.181Z,53.20
2017-06-23T02:51:35.425Z,53.30
2017-06-23T02:54:01.979Z,53.40
2017-06-23T02:56:28.225Z,53.50
2017-06-23T02:58:54.454Z,53.70
2017-06-23T03:01:20.711Z,53.60
2017-06-23T03:03:47.696Z,53.90
2017-06-23T03:06:13.953Z,53.80
2017-06-23T03:08:40.209Z,53.90
2017-06-23T03:11:07.171Z,54.10
2017-06-23T03:13:33.411Z,54.10
2017-06-23T03:15:59.666Z,54.20
2017-06-23T03:18:25.902Z,54.30
2017-06-23T03:20:52.427Z,54.40
2017-06-23T03:23:18.692Z,54.40
2017-06-23T03:25:44.924Z,54.60
2017-06-23T03:28:11.919Z,54.70
2017-06-23T03:30:38.191Z,54.60
2017-06-23T03:33:04.448Z,54.80
2017-06-23T03:35:30.683Z,54.70
2017-06-23T03:37:57.196Z,54.80
2017-06-23T03:40:24.223Z,54.90
2017-06-23T03:42:50.434Z,54.80
2017-06-23T03:45:16.713Z,54.90
2017-06-23T03:47:43.011Z,55.00
2017-06-23T03:50:09.280Z,54.90
2017-06-23T03:52:35.521Z,54.90
2017-06-23T03:55:01.813Z,54.90
2017-06-23T03:57:28.770Z,54.80
2017-06-23T03:59:55.027Z,54.80
2017-06-23T04:02:21.283Z,54.80
2017-06-23T04:04:47.499Z,54.70
2017-06-23T04:07:13.728Z,54.60
2017-06-23T04:09:39.969Z,54.50
2017-06-23T04:12:06.196Z,54.40
2017-06-23T04:14:32.744Z,54.30
2017-06-23T04:16:59.735Z,54.90
2017-06-23T04:19:25.963Z,54.20
2017-06-23T04:21:52.234Z,54.20
2017-06-23T04:24:18.464Z,54.20
2017-06-23T04:26:44.702Z,54.20
2017-06-23T04:29:10.928Z,54.10
2017-06-23T04:31:37.461Z,54.30
2017-06-23T04:34:04.449Z,54.10
2017-06-23T04:36:30.738Z,54.00
2017-06-23T04:38:57.747Z,54.00
2017-06-23T04:41:24.009Z,53.90
2017-06-23T04:43:50.996Z,53.90
2017-06-23T04:46:17.239Z,53.80
2017-06-23T04:48:43.468Z,53.80
2017-06-23T04:51:09.699Z,53.90
2017-06-23T04:53:35.914Z,53.90
2017-06-23T04:56:02.547Z,53.90
2017-06-23T04:58:28.797Z,53.90
2017-06-23T05:00:55.020Z,53.60
2017-06-23T05:03:21.271Z,53.50
2017-06-23T05:05:47.528Z,53.50
2017-06-23T05:08:14.069Z,53.40
2017-06-23T05:10:40.332Z,53.40
2017-06-23T05:13:06.560Z,53.40
2017-06-23T05:15:32.854Z,53.40
2017-06-23T05:17:59.073Z,53.40
2017-06-23T05:20:25.616Z,53.30
2017-06-23T05:22:51.916Z,53.40
2017-06-23T05:25:18.161Z,53.30
2017-06-23T05:27:45.202Z,52.70
2017-06-23T05:30:12.164Z,52.50
2017-06-23T05:32:38.681Z,52.50
2017-06-23T05:35:05.656Z,52.30
2017-06-23T05:37:31.903Z,52.20
2017-06-23T05:39:58.177Z,52.10
2017-06-23T05:42:25.135Z,51.90
2017-06-23T05:44:51.645Z,51.90
2017-06-23T05:47:17.867Z,51.90
2017-06-23T05:49:44.102Z,51.50
2017-06-23T05:52:10.323Z,51.20
2017-06-23T05:54:36.645Z,51.00
2017-06-23T05:57:03.203Z,50.80
2017-06-23T05:59:30.209Z,50.60
2017-06-23T06:01:56.420Z,50.50
2017-06-23T06:04:22.665Z,50.20
2017-06-23T06:06:48.956Z,50.10
2017-06-23T06:09:15.478Z,48.90
2017-06-23T06:11:41.699Z,48.80
2017-06-23T06:14:08.702Z,49.00
2017-06-23T06:16:34.978Z,49.00
2017-06-23T06:19:01.230Z,48.30
2017-06-23T06:21:27.494Z,48.30
2017-06-23T06:23:53.740Z,48.20
2017-06-23T06:26:20.003Z,48.50
2017-06-23T06:28:46.327Z,49.10
2017-06-23T06:31:12.588Z,49.20
2017-06-23T06:33:39.078Z,49.20
2017-06-23T06:36:05.573Z,48.70
2017-06-23T06:38:31.817Z,48.70
2017-06-23T06:40:58.133Z,48.50
2017-06-23T06:43:24.691Z,48.40
2017-06-23T06:45:50.975Z,48.80
2017-06-23T06:48:17.221Z,49.10
2017-06-23T06:50:43.504Z,48.80
2017-06-23T06:53:09.796Z,48.90
2017-06-23T06:55:36.374Z,49.20
2017-06-23T06:58:02.685Z,49.10
2017-06-23T07:00:28.922Z,48.40
2017-06-23T07:02:55.214Z,48.60
2017-06-23T07:05:21.479Z,48.30
2017-06-23T07:07:48.020Z,47.90
2017-06-23T07:10:14.276Z,47.70
2017-06-23T07:12:40.542Z,47.50
2017-06-23T07:15:07.539Z,47.80
2017-06-23T07:17:33.802Z,47.30
2017-06-23T07:20:00.376Z,47.20
2017-06-23T07:22:26.612Z,46.60
2017-06-23T07:24:52.858Z,46.60
2017-06-23T07:27:19.438Z,46.20
2017-06-23T07:29:46.466Z,46.40
2017-06-23T07:32:12.705Z,45.80
2017-06-23T07:34:38.974Z,46.30
2017-06-23T07:37:05.246Z,46.00
2017-06-23T07:39:31.524Z,46.20
2017-06-23T07:41:57.760Z,46.40
2017-06-23T07:44:24.071Z,46.60
2017-06-23T07:46:50.308Z,46.90
2017-06-23T07:49:16.587Z,47.30
2017-06-23T07:51:42.849Z,47.50
2017-06-23T07:54:10.124Z,47.90
2017-06-23T07:56:36.371Z,47.90
2017-06-23T07:59:02.602Z,47.60
2017-06-23T08:01:28.887Z,47.90
2017-06-23T08:03:55.117Z,47.60
2017-06-23T08:06:21.784Z,47.70
2017-06-23T08:08:48.020Z,47.50
2017-06-23T08:11:14.253Z,47.40
2017-06-23T08:13:40.554Z,47.00
2017-06-23T08:16:06.793Z,46.60
2017-06-23T08:18:33.032Z,46.60
2017-06-23T08:20:59.236Z,47.00
2017-06-23T08:23:25.855Z,47.30
2017-06-23T08:25:52.810Z,47.30
2017-06-23T08:28:19.060Z,47.30
2017-06-23T08:30:45.339Z,47.30
2017-06-23T08:33:11.581Z,47.20
2017-06-23T08:35:38.560Z,45.70
2017-06-23T08:38:04.814Z,45.70
2017-06-23T08:40:31.402Z,46.20
2017-06-23T08:42:57.632Z,46.20
2017-06-23T08:45:23.883Z,45.70
2017-06-23T08:47:50.136Z,45.60
2017-06-23T08:50:16.365Z,45.20
2017-06-23T08:52:42.729Z,44.90
2017-06-23T08:55:09.712Z,45.10
2017-06-23T08:57:35.965Z,45.00
2017-06-23T09:00:02.222Z,44.60
2017-06-23T09:02:29.504Z,42.70
2017-06-23T09:04:55.765Z,42.70
2017-06-23T09:07:22.001Z,41.40
2017-06-23T09:09:48.252Z,41.00
2017-06-23T09:12:14.596Z,41.20
2017-06-23T09:14:41.580Z,41.10
2017-06-23T09:17:07.817Z,41.10
2017-06-23T09:19:34.343Z,41.30
2017-06-23T09:22:00.620Z,41.30
2017-06-23T09:24:27.593Z,41.50
2017-06-23T09:26:53.841Z,41.00
2017-06-23T09:29:20.080Z,40.40
2017-06-23T09:31:46.368Z,40.60
2017-06-23T09:34:12.606Z,40.70
2017-06-23T09:36:38.859Z,41.00
2017-06-23T09:39:05.149Z,41.00
2017-06-23T09:41:31.374Z,41.20
2017-06-23T09:43:58.416Z,42.20
2017-06-23T09:46:25.057Z,42.20
2017-06-23T09:48:52.034Z,42.60
2017-06-23T09:51:18.251Z,42.50
2017-06-23T09:53:44.491Z,42.80
2017-06-23T09:56:10.692Z,42.40
2017-06-23T09:58:36.932Z,42.30
2017-06-23T10:01:03.159Z,42.50
2017-06-23T10:03:29.761Z,42.20
2017-06-23T10:05:56.729Z,42.00
2017-06-23T10:08:22.961Z,41.90
2017-06-23T10:10:49.181Z,42.10
2017-06-23T10:13:15.376Z,41.80
2017-06-23T10:15:41.627Z,41.90
2017-06-23T10:18:07.866Z,42.40
2017-06-23T10:20:34.134Z,41.70
2017-06-23T10:23:00.356Z,41.60
2017-06-23T10:25:27.111Z,41.80
2017-06-23T10:27:53.337Z,41.90
2017-06-23T10:30:19.562Z,42.00
2017-06-23T10:32:45.824Z,41.90
2017-06-23T10:35:12.826Z,41.10
2017-06-23T10:37:39.098Z,41.10
2017-06-23T10:40:06.089Z,41.20
2017-06-23T10:42:32.610Z,41.20
2017-06-23T10:44:58.841Z,40.30
2017-06-23T10:47:25.088Z,39.70
2017-06-23T10:49:51.328Z,39.50
2017-06-23T10:52:17.574Z,38.80
2017-06-23T10:54:44.537Z,37.50
2017-06-23T10:57:11.497Z,37.90
2017-06-23T10:59:38.010Z,37.90
2017-06-23T11:02:04.323Z,37.80
2017-06-23T11:04:30.542Z,38.50
2017-06-23T11:06:57.653Z,38.90
2017-06-23T11:09:23.925Z,38.70
2017-06-23T11:11:50.487Z,38.90
2017-06-23T11:14:16.741Z,39.40
2017-06-23T11:16:42.962Z,38.30
2017-06-23T11:19:09.250Z,38.20
2017-06-23T11:21:36.232Z,36.80
2017-06-23T11:24:02.475Z,36.70
2017-06-23T11:26:28.712Z,36.40
2017-06-23T11:28:55.406Z,36.50
2017-06-23T11:31:21.633Z,35.70
2017-06-23T11:33:48.173Z,35.80
2017-06-23T11:36:14.465Z,36.10
2017-06-23T11:38:40.709Z,36.10
2017-06-23T11:41:07.710Z,36.60
2017-06-23T11:43:33.953Z,36.50
2017-06-23T11:46:00.203Z,37.30
2017-06-23T11:48:27.562Z,37.00
2017-06-23T11:50:54.941Z,36.80
2017-06-23T11:53:21.238Z,36.70
2017-06-23T11:55:47.459Z,37.20
2017-06-23T11:58:13.717Z,38.00
2017-06-23T12:00:39.939Z,37.80
2017-06-23T12:03:06.485Z,37.10
2017-06-23T12:05:32.717Z,37.10
2017-06-23T12:07:58.943Z,37.50
2017-06-23T12:10:25.215Z,38.50
2017-06-23T12:12:51.460Z,38.40
2017-06-23T12:15:18.007Z,38.30
2017-06-23T12:17:45.072Z,38.50
2017-06-23T12:20:11.341Z,37.90
2017-06-23T12:22:37.571Z,37.30
2017-06-23T12:25:03.837Z,36.90
2017-06-23T12:27:30.444Z,37.00
2017-06-23T12:29:56.729Z,37.50
2017-06-23T12:32:22.997Z,37.80
2017-06-23T12:34:49.251Z,37.50
2017-06-23T12:37:15.482Z,37.70
2017-06-23T12:39:41.950Z,37.80
2017-06-23T12:42:08.202Z,37.90
2017-06-23T12:44:34.417Z,38.30
2017-06-23T12:47:00.638Z,38.10
2017-06-23T12:49:26.926Z,38.20
2017-06-23T12:51:53.456Z,37.40
2017-06-23T12:54:20.486Z,36.60
2017-06-23T12:56:47.517Z,36.90
2017-06-23T12:59:13.776Z,36.90
2017-06-23T13:01:40.016Z,37.40
2017-06-23T13:04:06.631Z,38.30
2017-06-23T13:06:32.857Z,39.10
2017-06-23T13:08:59.250Z,39.30
2017-06-23T13:11:26.233Z,39.00
2017-06-23T13:13:52.479Z,39.00
2017-06-23T13:16:19.512Z,38.50
2017-06-23T13:18:45.778Z,36.90
2017-06-23T13:21:12.037Z,37.00
2017-06-23T13:23:38.362Z,37.30
2017-06-23T13:26:04.595Z,35.00
2017-06-23T13:28:31.135Z,33.50
2017-06-23T13:30:57.360Z,32.30
2017-06-23T13:33:23.613Z,32.50
2017-06-23T13:35:49.892Z,32.90
2017-06-23T13:38:16.888Z,33.40
2017-06-23T13:40:43.461Z,33.40
2017-06-23T13:43:09.799Z,33.10
2017-06-23T13:45:36.025Z,32.80
2017-06-23T13:48:02.245Z,32.50
2017-06-23T13:50:28.493Z,32.30
2017-06-23T13:52:55.792Z,32.50
2017-06-23T13:55:22.002Z,33.00
2017-06-23T13:57:48.301Z,32.40
2017-06-23T14:00:15.294Z,31.50
2017-06-23T14:02:41.566Z,31.40
2017-06-23T14:05:08.812Z,32.70
2017-06-23T14:07:35.789Z,32.50
2017-06-23T14:10:01.998Z,32.50
2017-06-23T14:12:28.245Z,32.90
2017-06-23T14:14:54.477Z,32.90
2017-06-23T14:17:20.992Z,33.10
2017-06-23T14:19:47.270Z,33.10
2017-06-23T14:22:13.511Z,33.00
2017-06-23T14:24:39.755Z,33.00
2017-06-23T14:27:05.982Z,33.10
2017-06-23T14:29:32.656Z,34.20
2017-06-23T14:31:58.870Z,34.70
2017-06-23T14:34:25.089Z,35.30
2017-06-23T14:36:51.349Z,34.70
2017-06-23T14:39:17.576Z,34.80
2017-06-23T14:41:44.200Z,35.10
2017-06-23T14:44:10.420Z,35.80
2017-06-23T14:46:36.647Z,36.50
2017-06-23T14:49:02.948Z,36.80
2017-06-23T14:51:29.160Z,35.70
2017-06-23T14:53:55.674Z,34.70
2017-06-23T14:56:21.894Z,35.00
2017-06-23T14:58:48.149Z,34.20
2017-06-23T15:01:14.731Z,34.00
2017-06-23T15:03:41.032Z,33.60
2017-06-23T15:06:08.379Z,32.60
2017-06-23T15:08:34.654Z,32.50
2017-06-23T15:11:00.860Z,32.00
2017-06-23T15:13:27.511Z,30.80
2017-06-23T15:15:53.752Z,29.40
2017-06-23T15:18:19.989Z,28.10
2017-06-23T15:20:46.226Z,26.60
2017-06-23T15:23:12.597Z,26.10
2017-06-23T15:25:39.138Z,25.90
2017-06-23T15:28:06.117Z,24.90
2017-06-23T15:30:32.338Z,24.80
2017-06-23T15:32:58.622Z,23.20
2017-06-23T15:35:25.582Z,22.10
2017-06-23T15:37:52.927Z,21.90
2017-06-23T15:40:19.995Z,20.70
2017-06-23T15:42:46.208Z,20.60
2017-06-23T15:45:12.516Z,20.70
2017-06-23T15:47:38.767Z,20.30
2017-06-23T15:50:05.406Z,19.90
2017-06-23T15:52:31.627Z,19.80
2017-06-23T15:54:57.849Z,21.30
2017-06-23T15:57:24.105Z,21.80
2017-06-23T15:59:50.339Z,22.20
2017-06-23T16:02:16.889Z,21.40
2017-06-23T16:04:43.104Z,21.60
2017-06-23T16:07:09.332Z,22.50
2017-06-23T16:09:36.092Z,23.90
2017-06-23T16:12:02.323Z,25.10
2017-06-23T16:14:28.909Z,25.90
2017-06-23T16:16:55.210Z,26.40
2017-06-23T16:19:21.414Z,27.30
2017-06-23T16:21:47.705Z,28.80
2017-06-23T16:24:13.942Z,30.00
2017-06-23T16:26:40.576Z,30.30
2017-06-23T16:29:06.868Z,30.40
2017-06-23T16:31:33.852Z,30.80
2017-06-23T16:34:00.105Z,30.80
2017-06-23T16:36:26.518Z,30.70
2017-06-23T16:38:53.155Z,31.40
2017-06-23T16:41:19.405Z,32.10
2017-06-23T16:43:45.644Z,32.60
2017-06-23T16:46:11.888Z,33.50
2017-06-23T16:48:38.904Z,34.50
2017-06-23T16:51:05.467Z,34.30
2017-06-23T16:53:31.681Z,34.70
2017-06-23T16:55:57.906Z,34.70
2017-06-23T16:58:24.227Z,35.10
2017-06-23T17:00:50.438Z,34.90
2017-06-23T17:03:17.040Z,35.50
2017-06-23T17:05:43.320Z,36.10
2017-06-23T17:08:09.574Z,36.90
2017-06-23T17:10:36.625Z,37.30
2017-06-23T17:13:03.659Z,37.30
2017-06-23T17:15:30.225Z,37.30
2017-06-23T17:17:56.455Z,37.60
2017-06-23T17:20:22.716Z,37.80
2017-06-23T17:22:48.988Z,37.90
2017-06-23T17:25:15.979Z,38.20
2017-06-23T17:27:42.709Z,38.20
2017-06-23T17:30:08.964Z,38.50
2017-06-23T17:32:35.195Z,38.60
2017-06-23T17:35:01.471Z,39.00
2017-06-23T17:37:27.674Z,38.60
2017-06-23T17:39:54.199Z,38.50
2017-06-23T17:42:20.406Z,38.90
2017-06-23T17:44:46.633Z,39.10
2017-06-23T17:47:12.908Z,39.40
2017-06-23T17:49:39.906Z,39.70
2017-06-23T17:52:06.503Z,39.70
2017-06-23T17:54:32.789Z,39.20
2017-06-23T17:56:59.048Z,39.30
2017-06-23T17:59:25.290Z,39.20
2017-06-23T18:01:51.529Z,39.60
2017-06-23T18:04:18.055Z,39.50
2017-06-23T18:06:44.285Z,39.90
2017-06-23T18:09:10.547Z,40.10
2017-06-23T18:11:36.776Z,40.10
2017-06-23T18:14:03.022Z,40.40
2017-06-23T18:16:29.577Z,40.60
2017-06-23T18:18:55.826Z,40.80
2017-06-23T18:21:22.098Z,41.00
2017-06-23T18:23:48.338Z,41.10
2017-06-23T18:26:14.624Z,41.10
2017-06-23T18:28:41.180Z,41.00
2017-06-23T18:31:07.453Z,41.30
2017-06-23T18:33:34.498Z,42.10
2017-06-23T18:36:00.773Z,42.10
2017-06-23T18:38:27.026Z,42.60
2017-06-23T18:40:53.561Z,42.90
2017-06-23T18:43:19.814Z,43.10
2017-06-23T18:45:46.794Z,43.80
2017-06-23T18:48:13.043Z,43.80
2017-06-23T18:50:39.295Z,43.90
2017-06-23T18:53:05.847Z,44.00
2017-06-23T18:55:32.836Z,44.90
2017-06-23T18:57:59.083Z,44.80
2017-06-23T19:00:25.394Z,44.90
2017-06-23T19:02:51.662Z,45.10
2017-06-23T19:05:18.226Z,45.30
2017-06-23T19:07:44.456Z,45.30
2017-06-23T19:10:10.686Z,45.50
2017-06-23T19:12:36.963Z,45.90
2017-06-23T19:15:03.206Z,46.00
2017-06-23T19:17:29.781Z,46.20
2017-06-23T19:19:56.038Z,46.30
2017-06-23T19:22:22.275Z,46.70
2017-06-23T19:24:48.557Z,46.90
2017-06-23T19:27:14.808Z,46.90
2017-06-23T19:29:41.340Z,47.20
2017-06-23T19:32:07.625Z,47.20
2017-06-23T19:34:34.589Z,48.20
2017-06-23T19:37:01.605Z,47.90
2017-06-23T19:39:27.819Z,47.80
2017-06-23T19:41:54.510Z,48.10
2017-06-23T19:44:20.783Z,48.20
2017-06-23T19:46:47.020Z,48.20
2017-06-23T19:49:13.262Z,48.40
2017-06-23T19:51:39.497Z,48.70
2017-06-23T19:54:06.719Z,48.90
2017-06-23T19:56:32.984Z,48.90
2017-06-23T19:58:59.984Z,49.20
2017-06-23T20:01:26.288Z,49.20
2017-06-23T20:03:52.588Z,48.90
2017-06-23T20:06:19.993Z,48.70
2017-06-23T20:08:46.274Z,48.60
2017-06-23T20:11:12.546Z,48.80
2017-06-23T20:13:38.811Z,49.10
2017-06-23T20:16:05.824Z,50.20
2017-06-23T20:18:32.433Z,49.50
2017-06-23T20:20:58.654Z,49.80
2017-06-23T20:23:24.865Z,49.60
2017-06-23T20:25:51.868Z,50.10
2017-06-23T20:28:18.097Z,50.00
2017-06-23T20:30:44.690Z,50.30
2017-06-23T20:33:10.946Z,50.50
2017-06-23T20:35:37.207Z,50.20
2017-06-23T20:38:03.462Z,50.30
2017-06-23T20:40:29.743Z,50.40
2017-06-23T20:42:56.330Z,50.60
2017-06-23T20:45:22.519Z,50.50
2017-06-23T20:47:48.777Z,50.70
2017-06-23T20:50:15.784Z,51.00
2017-06-23T20:52:42.012Z,51.00
2017-06-23T20:55:08.581Z,51.00
2017-06-23T20:57:34.830Z,51.00
2017-06-23T21:00:01.072Z,51.10
2017-06-23T21:02:27.321Z,51.20
2017-06-23T21:04:53.593Z,51.30
2017-06-23T21:07:20.945Z,51.10
2017-06-23T21:09:48.010Z,51.10
2017-06-23T21:12:14.270Z,51.10
2017-06-23T21:14:40.549Z,51.00
2017-06-23T21:17:07.502Z,50.90
2017-06-23T21:19:34.043Z,50.90
2017-06-23T21:22:00.314Z,50.70
2017-06-23T21:24:26.564Z,50.50
2017-06-23T21:26:52.824Z,51.00
2017-06-23T21:29:19.064Z,50.60
2017-06-23T21:31:45.687Z,50.40
2017-06-23T21:34:11.972Z,50.40
2017-06-23T21:36:38.260Z,50.40
2017-06-23T21:39:04.549Z,51.10
2017-06-23T21:41:43.788Z,51.10
2017-06-23T21:44:11.043Z,52.40
2017-06-23T21:46:38.025Z,52.80
2017-06-23T21:49:04.288Z,52.70
2017-06-23T21:51:31.301Z,55.30
2017-06-23T21:53:57.515Z,55.20
2017-06-23T21:56:24.058Z,55.10
2017-06-23T21:58:50.267Z,54.90
2017-06-23T22:01:16.510Z,55.00
2017-06-23T22:03:42.767Z,55.90
2017-06-23T22:06:09.030Z,57.00
2017-06-23T22:08:36.031Z,56.60
2017-06-23T22:11:02.266Z,56.50
2017-06-23T22:13:28.964Z,57.80
2017-06-23T22:15:55.237Z,57.60
2017-06-23T22:18:21.563Z,57.00
2017-06-23T22:20:47.836Z,57.40
2017-06-23T22:23:14.825Z,56.10
2017-06-23T22:25:41.421Z,56.10
2017-06-23T22:28:07.701Z,54.90
2017-06-23T22:30:33.937Z,55.80
2017-06-23T22:33:00.229Z,54.70
2017-06-23T22:35:26.450Z,56.70
2017-06-23T22:37:53.079Z,58.10
2017-06-23T22:40:19.310Z,57.40
2017-06-23T22:42:45.546Z,57.40
2017-06-23T22:45:11.835Z,58.90
2017-06-23T22:47:38.788Z,56.90
2017-06-23T22:50:06.133Z,57.50
2017-06-23T22:52:33.100Z,57.70
2017-06-23T22:54:59.324Z,57.70
2017-06-23T22:57:25.542Z,57.60
2017-06-23T22:59:52.502Z,58.40
2017-06-23T23:02:19.036Z,58.40
2017-06-23T23:04:45.265Z,57.90
2017-06-23T23:07:11.501Z,58.10
2017-06-23T23:09:37.746Z,58.60
2017-06-23T23:12:04.028Z,58.50
2017-06-23T23:14:31.275Z,58.00
2017-06-23T23:16:58.221Z,57.70
2017-06-23T23:19:25.211Z,58.70
2017-06-23T23:21:51.422Z,58.70
2017-06-23T23:24:17.728Z,58.10
2017-06-23T23:26:44.976Z,57.80
2017-06-23T23:29:11.213Z,58.30
2017-06-23T23:31:38.162Z,58.30
2017-06-23T23:34:04.388Z,58.30
2017-06-23T23:36:30.610Z,58.80
2017-06-23T23:38:57.841Z,60.10
2017-06-23T23:41:24.033Z,60.00
2017-06-23T23:43:50.245Z,59.60
2017-06-23T23:46:16.498Z,59.10
2017-06-23T23:48:42.771Z,59.50
2017-06-23T23:51:09.346Z,58.90
2017-06-23T23:53:35.976Z,59.50
2017-06-23T23:56:02.230Z,59.30
2017-06-23T23:58:28.463Z,59.30
